createdAt,value
2019-02-24T00:00:41.572Z,3.40
2019-02-24T00:01:43.112Z,3.40
2019-02-24T00:02:44.230Z,3.40
2019-02-24T00:03:45.345Z,3.30
2019-02-24T00:04:46.466Z,3.40
2019-02-24T00:05:47.568Z,3.30
2019-02-24T00:06:48.707Z,3.20
2019-02-24T00:07:49.836Z,3.30
2019-02-24T00:08:50.944Z,3.30
2019-02-24T00:09:52.066Z,3.30
2019-02-24T00:10:53.188Z,3.30
2019-02-24T00:11:54.311Z,3.30
2019-02-24T00:12:55.420Z,3.10
2019-02-24T00:13:56.544Z,2.90
2019-02-24T00:14:57.666Z,2.60
2019-02-24T00:15:58.793Z,2.40
2019-02-24T00:16:59.933Z,2.20
2019-02-24T00:18:01.121Z,2.10
2019-02-24T00:19:03.798Z,1.90
2019-02-24T00:20:05.161Z,1.90
2019-02-24T00:21:06.277Z,1.90
2019-02-24T00:22:07.411Z,1.90
2019-02-24T00:23:08.537Z,2.10
2019-02-24T00:24:09.648Z,2.30
2019-02-24T00:25:10.860Z,2.40
2019-02-24T00:26:12.064Z,2.50
2019-02-24T00:27:13.184Z,2.60
2019-02-24T00:28:14.334Z,2.70
2019-02-24T00:29:15.463Z,2.80
2019-02-24T00:30:16.591Z,2.80
2019-02-24T00:31:17.700Z,2.80
2019-02-24T00:32:18.878Z,2.90
2019-02-24T00:33:20.002Z,2.90
2019-02-24T00:34:21.116Z,3.00
2019-02-24T00:35:22.933Z,2.60
2019-02-24T00:36:24.060Z,2.40
2019-02-24T00:37:25.189Z,2.20
2019-02-24T00:38:26.302Z,2.10
2019-02-24T00:39:27.417Z,2.00
2019-02-24T00:40:28.532Z,1.90
2019-02-24T00:41:29.648Z,1.90
2019-02-24T00:42:30.825Z,1.80
2019-02-24T00:43:32.253Z,1.80
2019-02-24T00:44:33.482Z,1.80
2019-02-24T00:45:34.656Z,1.70
2019-02-24T00:46:35.768Z,1.70
2019-02-24T00:47:36.961Z,1.70
2019-02-24T00:48:38.123Z,1.70
2019-02-24T00:49:39.477Z,1.80
2019-02-24T00:50:40.595Z,1.90
2019-02-24T00:51:41.704Z,1.90
2019-02-24T00:52:42.833Z,1.80
2019-02-24T00:53:43.946Z,1.80
2019-02-24T00:54:45.069Z,1.90
2019-02-24T00:55:46.185Z,2.00
2019-02-24T00:56:47.297Z,2.20
2019-02-24T00:57:48.521Z,2.30
2019-02-24T00:58:49.637Z,2.30
2019-02-24T00:59:50.753Z,2.50
2019-02-24T01:00:51.873Z,2.50
2019-02-24T01:01:52.992Z,2.60
2019-02-24T01:02:54.120Z,2.50
2019-02-24T01:03:55.236Z,2.60
2019-02-24T01:04:56.357Z,2.60
2019-02-24T01:05:57.481Z,2.50
2019-02-24T01:06:58.597Z,2.50
2019-02-24T01:07:59.724Z,2.50
2019-02-24T01:09:00.860Z,2.60
2019-02-24T01:10:04.485Z,2.60
2019-02-24T01:11:05.608Z,2.80
2019-02-24T01:12:06.741Z,2.80
2019-02-24T01:13:07.961Z,2.80
2019-02-24T01:14:09.069Z,2.70
2019-02-24T01:15:11.080Z,2.80
2019-02-24T01:16:12.192Z,2.80
2019-02-24T01:17:13.326Z,2.80
2019-02-24T01:18:14.445Z,2.70
2019-02-24T01:19:15.568Z,2.70
2019-02-24T01:20:16.681Z,2.50
2019-02-24T01:21:17.808Z,2.30
2019-02-24T01:22:18.958Z,2.10
2019-02-24T01:23:20.082Z,2.00
2019-02-24T01:24:21.197Z,1.90
2019-02-24T01:25:22.555Z,2.00
2019-02-24T01:26:23.680Z,2.00
2019-02-24T01:27:24.813Z,2.20
2019-02-24T01:28:25.948Z,2.30
2019-02-24T01:29:27.056Z,2.40
2019-02-24T01:30:28.173Z,2.40
2019-02-24T01:31:29.286Z,2.50
2019-02-24T01:32:30.407Z,2.50
2019-02-24T01:33:31.575Z,2.60
2019-02-24T01:34:32.744Z,2.60
2019-02-24T01:35:33.857Z,2.60
2019-02-24T01:36:34.973Z,2.70
2019-02-24T01:37:36.120Z,2.80
2019-02-24T01:38:37.236Z,2.80
2019-02-24T01:39:38.345Z,2.80
2019-02-24T01:40:39.467Z,2.80
2019-02-24T01:41:40.580Z,2.80
2019-02-24T01:42:41.708Z,2.80
2019-02-24T01:43:42.830Z,2.80
2019-02-24T01:44:43.945Z,2.80
2019-02-24T01:45:45.096Z,2.80
2019-02-24T01:46:46.212Z,2.70
2019-02-24T01:47:47.355Z,2.70
2019-02-24T01:48:48.476Z,2.70
2019-02-24T01:49:49.588Z,2.70
2019-02-24T01:50:50.700Z,2.70
2019-02-24T01:51:51.808Z,2.70
2019-02-24T01:52:52.941Z,2.50
2019-02-24T01:53:54.204Z,2.40
2019-02-24T01:54:55.327Z,2.40
2019-02-24T01:55:56.442Z,2.50
2019-02-24T01:56:57.561Z,2.50
2019-02-24T01:57:58.689Z,2.50
2019-02-24T01:58:59.804Z,2.50
2019-02-24T02:00:01.016Z,2.50
2019-02-24T02:01:02.134Z,2.50
2019-02-24T02:02:03.368Z,2.40
2019-02-24T02:03:04.489Z,2.40
2019-02-24T02:04:05.605Z,2.50
2019-02-24T02:05:07.021Z,2.50
2019-02-24T02:06:08.140Z,2.60
2019-02-24T02:07:09.253Z,2.60
2019-02-24T02:08:10.386Z,2.60
2019-02-24T02:09:11.896Z,2.60
2019-02-24T02:10:13.022Z,2.60
2019-02-24T02:11:14.128Z,2.50
2019-02-24T02:12:15.247Z,2.50
2019-02-24T02:13:16.381Z,2.50
2019-02-24T02:14:17.733Z,2.50
2019-02-24T02:15:18.858Z,2.50
2019-02-24T02:16:19.968Z,2.50
2019-02-24T02:17:21.092Z,2.40
2019-02-24T02:18:22.286Z,2.40
2019-02-24T02:19:23.449Z,2.40
2019-02-24T02:20:24.564Z,2.40
2019-02-24T02:21:25.683Z,2.50
2019-02-24T02:22:26.804Z,2.40
2019-02-24T02:23:27.933Z,2.30
2019-02-24T02:24:29.045Z,2.40
2019-02-24T02:25:30.167Z,2.40
2019-02-24T02:26:31.288Z,2.40
2019-02-24T02:27:32.404Z,2.30
2019-02-24T02:28:33.544Z,2.40
2019-02-24T02:29:34.653Z,2.30
2019-02-24T02:30:35.765Z,2.20
2019-02-24T02:31:36.882Z,2.20
2019-02-24T02:32:38.004Z,2.20
2019-02-24T02:33:39.133Z,2.20
2019-02-24T02:34:40.243Z,2.30
2019-02-24T02:35:41.360Z,2.30
2019-02-24T02:36:42.473Z,2.20
2019-02-24T02:37:43.622Z,2.10
2019-02-24T02:38:44.752Z,2.20
2019-02-24T02:39:45.865Z,2.20
2019-02-24T02:40:46.986Z,2.20
2019-02-24T02:41:48.096Z,2.20
2019-02-24T02:42:49.223Z,2.20
2019-02-24T02:43:50.355Z,2.10
2019-02-24T02:44:51.799Z,2.00
2019-02-24T02:45:52.912Z,2.00
2019-02-24T02:46:54.020Z,2.00
2019-02-24T02:47:55.140Z,2.10
2019-02-24T02:48:56.272Z,2.00
2019-02-24T02:49:57.413Z,2.00
2019-02-24T02:50:58.546Z,2.00
2019-02-24T02:51:59.676Z,2.10
2019-02-24T02:53:00.792Z,2.10
2019-02-24T02:54:01.913Z,2.10
2019-02-24T02:55:04.901Z,2.10
2019-02-24T02:56:06.063Z,2.10
2019-02-24T02:57:07.173Z,2.20
2019-02-24T02:58:08.284Z,2.10
2019-02-24T02:59:09.413Z,2.00
2019-02-24T03:00:14.339Z,2.10
2019-02-24T03:01:15.491Z,2.00
2019-02-24T03:02:24.037Z,1.90
2019-02-24T03:03:19.634Z,1.90
2019-02-24T03:04:20.757Z,1.80
2019-02-24T03:05:21.881Z,1.80
2019-02-24T03:06:27.628Z,1.80
2019-02-24T03:07:33.454Z,1.80
2019-02-24T03:08:48.092Z,1.70
2019-02-24T03:09:49.233Z,1.70
2019-02-24T03:10:50.349Z,1.70
2019-02-24T03:11:51.462Z,1.70
2019-02-24T03:12:52.587Z,1.70
2019-02-24T03:13:53.710Z,1.80
2019-02-24T03:14:54.838Z,1.80
2019-02-24T03:15:55.953Z,1.80
2019-02-24T03:16:57.067Z,1.80
2019-02-24T03:17:58.189Z,1.90
2019-02-24T03:18:59.310Z,1.90
2019-02-24T03:20:00.430Z,1.80
2019-02-24T03:21:01.541Z,1.90
2019-02-24T03:22:02.677Z,1.90
2019-02-24T03:23:03.781Z,1.90
2019-02-24T03:24:04.891Z,1.90
2019-02-24T03:25:06.122Z,1.80
2019-02-24T03:26:07.861Z,1.90
2019-02-24T03:27:09.022Z,1.80
2019-02-24T03:28:10.202Z,1.70
2019-02-24T03:29:11.361Z,1.80
2019-02-24T03:30:12.483Z,1.70
2019-02-24T03:31:13.713Z,1.80
2019-02-24T03:32:14.940Z,1.70
2019-02-24T03:33:16.140Z,1.70
2019-02-24T03:34:17.252Z,1.70
2019-02-24T03:35:18.372Z,1.60
2019-02-24T03:36:19.488Z,1.70
2019-02-24T03:37:20.602Z,1.70
2019-02-24T03:38:21.730Z,1.70
2019-02-24T03:39:22.848Z,1.70
2019-02-24T03:40:23.974Z,1.60
2019-02-24T03:41:25.092Z,1.60
2019-02-24T03:42:26.205Z,1.60
2019-02-24T03:43:27.330Z,1.70
2019-02-24T03:44:28.438Z,1.70
2019-02-24T03:45:29.567Z,1.70
2019-02-24T03:46:30.698Z,1.70
2019-02-24T03:47:31.813Z,1.70
2019-02-24T03:48:33.236Z,1.70
2019-02-24T03:49:34.361Z,1.70
2019-02-24T03:50:35.485Z,1.60
2019-02-24T03:51:36.614Z,1.50
2019-02-24T03:52:37.737Z,1.50
2019-02-24T03:53:38.944Z,1.40
2019-02-24T03:54:40.054Z,1.30
2019-02-24T03:55:41.183Z,1.30
2019-02-24T03:56:42.320Z,1.30
2019-02-24T03:57:43.444Z,1.40
2019-02-24T03:58:44.760Z,1.50
2019-02-24T03:59:45.993Z,1.50
2019-02-24T04:00:47.131Z,1.50
2019-02-24T04:01:48.535Z,1.50
2019-02-24T04:02:49.756Z,1.50
2019-02-24T04:03:50.865Z,1.50
2019-02-24T04:04:51.993Z,1.40
2019-02-24T04:05:53.115Z,1.40
2019-02-24T04:06:54.225Z,1.40
2019-02-24T04:07:55.623Z,1.40
2019-02-24T04:08:56.729Z,1.30
2019-02-24T04:10:01.125Z,1.30
2019-02-24T04:11:02.250Z,1.10
2019-02-24T04:12:03.368Z,1.10
2019-02-24T04:13:04.476Z,1.00
2019-02-24T04:14:05.601Z,0.90
2019-02-24T04:15:06.716Z,0.80
2019-02-24T04:16:07.844Z,0.70
2019-02-24T04:17:09.010Z,0.80
2019-02-24T04:18:10.129Z,1.00
2019-02-24T04:19:11.237Z,1.10
2019-02-24T04:20:12.357Z,1.10
2019-02-24T04:21:13.496Z,1.10
2019-02-24T04:22:14.618Z,1.20
2019-02-24T04:23:15.728Z,1.30
2019-02-24T04:24:16.846Z,1.30
2019-02-24T04:25:17.960Z,1.30
2019-02-24T04:26:19.101Z,1.20
2019-02-24T04:27:20.220Z,1.30
2019-02-24T04:28:21.345Z,1.20
2019-02-24T04:29:25.140Z,1.20
2019-02-24T04:30:25.792Z,1.10
2019-02-24T04:31:27.212Z,1.10
2019-02-24T04:32:28.345Z,1.20
2019-02-24T04:33:29.457Z,1.20
2019-02-24T04:34:30.572Z,1.20
2019-02-24T04:35:31.693Z,1.10
2019-02-24T04:36:32.822Z,1.10
2019-02-24T04:37:33.946Z,1.10
2019-02-24T04:38:35.074Z,1.00
2019-02-24T04:39:36.207Z,0.90
2019-02-24T04:40:37.321Z,0.90
2019-02-24T04:41:38.454Z,0.90
2019-02-24T04:42:39.892Z,0.80
2019-02-24T04:43:41.006Z,0.80
2019-02-24T04:44:42.129Z,0.80
2019-02-24T04:45:43.244Z,0.70
2019-02-24T04:46:44.381Z,0.70
2019-02-24T04:47:45.493Z,0.70
2019-02-24T04:48:46.613Z,0.70
2019-02-24T04:49:47.721Z,0.70
2019-02-24T04:50:48.850Z,0.70
2019-02-24T04:51:49.982Z,0.70
2019-02-24T04:52:51.092Z,0.70
2019-02-24T04:53:52.213Z,0.70
2019-02-24T04:54:53.328Z,0.80
2019-02-24T04:55:54.445Z,0.90
2019-02-24T04:56:55.572Z,1.00
2019-02-24T04:57:56.690Z,1.10
2019-02-24T04:58:57.905Z,1.10
2019-02-24T04:59:59.030Z,1.20
2019-02-24T05:01:00.154Z,1.30
2019-02-24T05:02:01.285Z,1.30
2019-02-24T05:03:02.400Z,1.30
2019-02-24T05:04:03.512Z,1.20
2019-02-24T05:05:04.733Z,1.20
2019-02-24T05:06:05.849Z,1.10
2019-02-24T05:07:06.982Z,1.00
2019-02-24T05:08:08.108Z,1.00
2019-02-24T05:09:09.225Z,1.00
2019-02-24T05:10:10.341Z,1.10
2019-02-24T05:11:11.474Z,1.00
2019-02-24T05:12:12.600Z,0.90
2019-02-24T05:13:13.712Z,0.70
2019-02-24T05:14:14.824Z,0.50
2019-02-24T05:15:15.944Z,0.40
2019-02-24T05:16:17.058Z,0.40
2019-02-24T05:17:18.189Z,0.40
2019-02-24T05:18:19.315Z,0.50
2019-02-24T05:19:20.431Z,0.70
2019-02-24T05:20:21.554Z,0.80
2019-02-24T05:21:22.668Z,0.90
2019-02-24T05:22:23.828Z,0.90
2019-02-24T05:23:24.931Z,0.80
2019-02-24T05:24:26.046Z,0.80
2019-02-24T05:25:27.169Z,0.70
2019-02-24T05:26:28.345Z,0.70
2019-02-24T05:27:29.493Z,0.70
2019-02-24T05:28:30.605Z,0.70
2019-02-24T05:29:31.731Z,0.80
2019-02-24T05:30:32.855Z,0.80
2019-02-24T05:31:33.997Z,0.80
2019-02-24T05:32:35.405Z,0.70
2019-02-24T05:33:36.536Z,0.70
2019-02-24T05:34:37.797Z,0.60
2019-02-24T05:35:39.286Z,0.60
2019-02-24T05:36:40.498Z,0.60
2019-02-24T05:37:41.630Z,0.70
2019-02-24T05:38:44.833Z,0.80
2019-02-24T05:39:45.820Z,0.80
2019-02-24T05:40:46.947Z,0.70
2019-02-24T05:41:48.088Z,0.70
2019-02-24T05:42:49.246Z,0.90
2019-02-24T05:43:50.423Z,1.00
2019-02-24T05:44:51.536Z,1.10
2019-02-24T05:45:52.661Z,1.10
2019-02-24T05:46:53.776Z,1.10
2019-02-24T05:47:54.900Z,1.20
2019-02-24T05:48:56.021Z,1.10
2019-02-24T05:49:57.135Z,1.10
2019-02-24T05:50:58.257Z,1.00
2019-02-24T05:51:59.371Z,1.00
2019-02-24T05:53:00.501Z,1.00
2019-02-24T05:54:01.626Z,0.80
2019-02-24T05:55:03.671Z,0.80
2019-02-24T05:56:04.784Z,0.80
2019-02-24T05:57:05.896Z,0.80
2019-02-24T05:58:07.026Z,0.80
2019-02-24T05:59:08.154Z,0.80
2019-02-24T06:00:09.287Z,0.80
2019-02-24T06:01:10.383Z,0.70
2019-02-24T06:02:11.509Z,0.60
2019-02-24T06:03:12.643Z,0.40
2019-02-24T06:04:13.772Z,0.40
2019-02-24T06:05:14.892Z,0.20
2019-02-24T06:06:16.007Z,0.10
2019-02-24T06:07:17.120Z,0.00
2019-02-24T06:08:18.244Z,-0.10
2019-02-24T06:09:19.364Z,-0.20
2019-02-24T06:10:20.481Z,-0.20
2019-02-24T06:11:21.607Z,-0.20
2019-02-24T06:12:22.725Z,-0.20
2019-02-24T06:13:23.845Z,-0.10
2019-02-24T06:14:24.956Z,0.10
2019-02-24T06:15:26.147Z,0.20
2019-02-24T06:16:27.261Z,0.20
2019-02-24T06:17:28.531Z,0.20
2019-02-24T06:18:29.658Z,0.20
2019-02-24T06:19:30.779Z,0.30
2019-02-24T06:20:31.905Z,0.30
2019-02-24T06:21:33.020Z,0.30
2019-02-24T06:22:34.146Z,0.20
2019-02-24T06:23:35.276Z,0.20
2019-02-24T06:24:36.396Z,0.30
2019-02-24T06:25:37.536Z,0.40
2019-02-24T06:26:38.667Z,0.40
2019-02-24T06:27:39.799Z,0.40
2019-02-24T06:28:40.913Z,0.50
2019-02-24T06:29:42.081Z,0.60
2019-02-24T06:30:43.198Z,0.60
2019-02-24T06:31:44.310Z,0.50
2019-02-24T06:32:45.424Z,0.50
2019-02-24T06:33:46.541Z,0.50
2019-02-24T06:34:47.662Z,0.40
2019-02-24T06:35:48.785Z,0.40
2019-02-24T06:36:49.900Z,0.50
2019-02-24T06:37:51.030Z,0.60
2019-02-24T06:38:52.152Z,0.60
2019-02-24T06:39:53.272Z,0.70
2019-02-24T06:40:54.388Z,0.70
2019-02-24T06:41:55.500Z,0.80
2019-02-24T06:42:56.621Z,0.80
2019-02-24T06:43:57.753Z,0.80
2019-02-24T06:44:58.872Z,0.70
2019-02-24T06:45:59.984Z,0.70
2019-02-24T06:47:01.115Z,0.80
2019-02-24T06:48:02.238Z,0.80
2019-02-24T06:49:03.361Z,0.80
2019-02-24T06:50:06.882Z,0.80
2019-02-24T06:51:09.600Z,0.90
2019-02-24T06:52:10.722Z,0.80
2019-02-24T06:53:11.866Z,0.80
2019-02-24T06:54:12.971Z,0.80
2019-02-24T06:55:14.127Z,0.70
2019-02-24T06:56:15.241Z,0.60
2019-02-24T06:57:16.404Z,0.60
2019-02-24T06:58:18.509Z,0.50
2019-02-24T06:59:19.758Z,0.50
2019-02-24T07:00:20.872Z,0.50
2019-02-24T07:01:21.988Z,0.60
2019-02-24T07:02:24.908Z,0.70
2019-02-24T07:03:26.033Z,0.60
2019-02-24T07:04:27.153Z,0.60
2019-02-24T07:05:28.269Z,0.60
2019-02-24T07:06:29.384Z,0.60
2019-02-24T07:07:30.504Z,0.50
2019-02-24T07:08:31.637Z,0.40
2019-02-24T07:09:33.158Z,0.40
2019-02-24T07:10:34.278Z,0.40
2019-02-24T07:11:35.393Z,0.30
2019-02-24T07:12:36.516Z,0.20
2019-02-24T07:13:37.651Z,0.20
2019-02-24T07:14:38.764Z,0.10
2019-02-24T07:15:39.883Z,0.10
2019-02-24T07:16:40.992Z,0.10
2019-02-24T07:17:42.100Z,0.10
2019-02-24T07:18:43.233Z,0.10
2019-02-24T07:19:44.356Z,0.10
2019-02-24T07:20:45.465Z,0.00
2019-02-24T07:21:46.577Z,0.00
2019-02-24T07:22:47.698Z,0.00
2019-02-24T07:23:48.832Z,0.00
2019-02-24T07:24:49.944Z,0.00
2019-02-24T07:25:51.061Z,0.00
2019-02-24T07:26:52.225Z,0.00
2019-02-24T07:27:53.344Z,0.00
2019-02-24T07:28:54.470Z,0.10
2019-02-24T07:29:55.598Z,0.10
2019-02-24T07:30:56.716Z,0.20
2019-02-24T07:31:57.834Z,0.20
2019-02-24T07:32:58.953Z,0.30
2019-02-24T07:34:00.085Z,0.30
2019-02-24T07:35:01.310Z,0.30
2019-02-24T07:36:02.429Z,0.40
2019-02-24T07:37:12.596Z,0.40
2019-02-24T07:38:06.561Z,0.40
2019-02-24T07:39:07.699Z,0.50
2019-02-24T07:40:08.816Z,0.50
2019-02-24T07:41:09.945Z,0.50
2019-02-24T07:42:11.096Z,0.50
2019-02-24T07:43:12.213Z,0.50
2019-02-24T07:44:13.411Z,0.50
2019-02-24T07:45:14.526Z,0.50
2019-02-24T07:46:15.654Z,0.50
2019-02-24T07:47:16.773Z,0.50
2019-02-24T07:48:17.889Z,0.50
2019-02-24T07:49:19.014Z,0.50
2019-02-24T07:50:20.140Z,0.60
2019-02-24T07:51:21.252Z,0.60
2019-02-24T07:52:22.381Z,0.60
2019-02-24T07:53:23.523Z,0.60
2019-02-24T07:54:24.636Z,0.70
2019-02-24T07:55:25.768Z,0.60
2019-02-24T07:56:26.889Z,0.60
2019-02-24T07:57:27.999Z,0.70
2019-02-24T07:58:29.133Z,0.70
2019-02-24T07:59:30.258Z,0.70
2019-02-24T08:00:32.499Z,0.80
2019-02-24T08:01:33.794Z,0.80
2019-02-24T08:02:34.912Z,0.80
2019-02-24T08:03:36.045Z,0.80
2019-02-24T08:04:37.149Z,0.90
2019-02-24T08:05:38.272Z,0.80
2019-02-24T08:06:39.399Z,0.90
2019-02-24T08:07:40.505Z,0.80
2019-02-24T08:08:41.629Z,0.90
2019-02-24T08:09:43.097Z,0.90
2019-02-24T08:10:44.206Z,0.90
2019-02-24T08:11:45.354Z,0.90
2019-02-24T08:12:46.487Z,0.90
2019-02-24T08:13:47.617Z,0.90
2019-02-24T08:14:48.740Z,1.00
2019-02-24T08:15:49.885Z,1.00
2019-02-24T08:16:51.004Z,0.90
2019-02-24T08:17:52.121Z,1.00
2019-02-24T08:18:53.249Z,1.00
2019-02-24T08:19:54.403Z,1.00
2019-02-24T08:20:55.548Z,1.00
2019-02-24T08:21:56.755Z,1.00
2019-02-24T08:22:57.879Z,1.00
2019-02-24T08:23:59.068Z,1.00
2019-02-24T08:25:00.204Z,1.10
2019-02-24T08:26:01.309Z,1.10
2019-02-24T08:27:02.442Z,1.20
2019-02-24T08:28:03.556Z,1.20
2019-02-24T08:29:04.703Z,1.20
2019-02-24T08:30:09.409Z,1.20
2019-02-24T08:31:10.608Z,1.30
2019-02-24T08:32:13.643Z,1.40
2019-02-24T08:33:14.768Z,1.40
2019-02-24T08:34:15.896Z,1.30
2019-02-24T08:35:17.017Z,1.40
2019-02-24T08:36:18.145Z,1.50
2019-02-24T08:37:19.336Z,1.50
2019-02-24T08:38:20.453Z,1.60
2019-02-24T08:39:21.581Z,1.60
2019-02-24T08:40:22.701Z,1.60
2019-02-24T08:41:26.780Z,1.70
2019-02-24T08:42:27.901Z,1.80
2019-02-24T08:43:29.017Z,1.80
2019-02-24T08:44:30.155Z,1.80
2019-02-24T08:45:31.298Z,1.90
2019-02-24T08:46:32.412Z,1.90
2019-02-24T08:47:33.584Z,1.90
2019-02-24T08:48:34.701Z,2.00
2019-02-24T08:49:35.824Z,2.00
2019-02-24T08:50:36.946Z,2.10
2019-02-24T08:51:38.062Z,2.10
2019-02-24T08:52:39.204Z,2.20
2019-02-24T08:53:40.363Z,2.20
2019-02-24T08:54:41.480Z,2.30
2019-02-24T08:55:42.601Z,2.30
2019-02-24T08:56:43.788Z,2.40
2019-02-24T08:57:44.908Z,2.40
2019-02-24T08:58:46.025Z,2.50
2019-02-24T08:59:47.140Z,2.50
2019-02-24T09:00:50.991Z,2.60
2019-02-24T09:01:51.400Z,2.60
2019-02-24T09:02:52.696Z,2.70
2019-02-24T09:03:53.840Z,2.70
2019-02-24T09:04:54.968Z,2.80
2019-02-24T09:05:56.082Z,2.80
2019-02-24T09:06:57.212Z,2.90
2019-02-24T09:07:58.321Z,2.90
2019-02-24T09:08:59.444Z,3.00
2019-02-24T09:10:00.572Z,3.10
2019-02-24T09:11:01.688Z,3.10
2019-02-24T09:12:02.810Z,3.20
2019-02-24T09:13:03.928Z,3.20
2019-02-24T09:14:05.044Z,3.20
2019-02-24T09:15:09.296Z,3.30
2019-02-24T09:16:10.489Z,3.40
2019-02-24T09:17:11.679Z,3.40
2019-02-24T09:18:12.796Z,3.40
2019-02-24T09:19:13.921Z,3.50
2019-02-24T09:20:15.058Z,3.50
2019-02-24T09:21:16.416Z,3.60
2019-02-24T09:22:17.534Z,3.60
2019-02-24T09:23:18.655Z,3.70
2019-02-24T09:24:19.778Z,3.70
2019-02-24T09:25:20.904Z,3.70
2019-02-24T09:26:22.016Z,3.80
2019-02-24T09:27:23.159Z,3.80
2019-02-24T09:28:24.283Z,3.90
2019-02-24T09:29:25.396Z,3.90
2019-02-24T09:30:26.529Z,3.90
2019-02-24T09:31:28.145Z,4.00
2019-02-24T09:32:29.296Z,4.00
2019-02-24T09:33:30.468Z,4.10
2019-02-24T09:34:31.585Z,4.20
2019-02-24T09:35:32.710Z,4.20
2019-02-24T09:36:33.824Z,4.30
2019-02-24T09:37:34.941Z,4.30
2019-02-24T09:38:36.054Z,4.30
2019-02-24T09:39:37.172Z,4.40
2019-02-24T09:40:38.307Z,4.40
2019-02-24T09:41:39.438Z,4.50
2019-02-24T09:42:40.550Z,4.60
2019-02-24T09:43:41.715Z,4.60
2019-02-24T09:44:42.880Z,4.70
2019-02-24T09:45:45.912Z,4.70
2019-02-24T09:46:47.026Z,4.80
2019-02-24T09:47:48.462Z,4.80
2019-02-24T09:48:49.602Z,4.90
2019-02-24T09:49:50.721Z,4.90
2019-02-24T09:50:51.864Z,5.00
2019-02-24T09:51:52.985Z,5.10
2019-02-24T09:52:54.103Z,5.10
2019-02-24T09:53:55.221Z,5.10
2019-02-24T09:54:56.341Z,5.20
2019-02-24T09:55:57.467Z,5.30
2019-02-24T09:56:58.574Z,5.30
2019-02-24T09:57:59.706Z,5.30
2019-02-24T09:59:00.929Z,5.40
2019-02-24T10:00:04.857Z,5.40
2019-02-24T10:01:10.629Z,5.50
2019-02-24T10:02:09.002Z,5.50
2019-02-24T10:03:10.119Z,5.60
2019-02-24T10:04:11.316Z,5.70
2019-02-24T10:05:12.442Z,5.80
2019-02-24T10:06:13.584Z,5.90
2019-02-24T10:07:14.696Z,5.90
2019-02-24T10:08:15.814Z,6.00
2019-02-24T10:09:16.927Z,6.00
2019-02-24T10:10:18.044Z,6.10
2019-02-24T10:11:19.181Z,6.10
2019-02-24T10:12:20.296Z,6.20
2019-02-24T10:13:21.408Z,6.20
2019-02-24T10:14:22.522Z,6.30
2019-02-24T10:15:23.948Z,6.40
2019-02-24T10:16:25.073Z,6.50
2019-02-24T10:17:26.281Z,6.50
2019-02-24T10:18:27.519Z,6.60
2019-02-24T10:19:28.634Z,6.70
2019-02-24T10:20:29.870Z,6.70
2019-02-24T10:21:31.027Z,6.80
2019-02-24T10:22:32.141Z,6.80
2019-02-24T10:23:33.258Z,6.80
2019-02-24T10:24:34.378Z,6.90
2019-02-24T10:25:35.494Z,7.00
2019-02-24T10:26:36.630Z,7.00
2019-02-24T10:27:37.801Z,7.10
2019-02-24T10:28:38.976Z,7.10
2019-02-24T10:29:40.092Z,7.20
2019-02-24T10:30:41.212Z,7.30
2019-02-24T10:31:42.336Z,7.30
2019-02-24T10:32:43.524Z,7.30
2019-02-24T10:33:44.941Z,7.40
2019-02-24T10:34:46.058Z,7.50
2019-02-24T10:35:47.180Z,7.50
2019-02-24T10:36:48.305Z,7.60
2019-02-24T10:37:49.830Z,7.60
2019-02-24T10:38:50.943Z,7.80
2019-02-24T10:39:52.052Z,7.80
2019-02-24T10:40:53.181Z,7.90
2019-02-24T10:41:54.300Z,8.00
2019-02-24T10:42:55.422Z,8.00
2019-02-24T10:43:56.528Z,8.10
2019-02-24T10:44:57.657Z,8.10
2019-02-24T10:45:58.770Z,8.20
2019-02-24T10:46:59.901Z,8.20
2019-02-24T10:48:01.013Z,8.30
2019-02-24T10:49:03.569Z,8.30
2019-02-24T10:50:08.457Z,8.40
2019-02-24T10:51:09.876Z,8.50
2019-02-24T10:52:11.001Z,8.60
2019-02-24T10:53:12.126Z,8.60
2019-02-24T10:54:13.251Z,8.70
2019-02-24T10:55:14.369Z,8.70
2019-02-24T10:56:15.496Z,8.80
2019-02-24T10:57:16.624Z,8.90
2019-02-24T10:58:17.745Z,9.00
2019-02-24T10:59:18.861Z,9.00
2019-02-24T11:00:20.375Z,9.10
2019-02-24T11:01:29.370Z,9.20
2019-02-24T11:02:24.534Z,9.30
2019-02-24T11:03:25.653Z,9.40
2019-02-24T11:04:26.775Z,9.50
2019-02-24T11:05:27.896Z,9.60
2019-02-24T11:06:29.009Z,9.80
2019-02-24T11:07:30.145Z,9.90
2019-02-24T11:08:31.270Z,10.00
2019-02-24T11:09:32.954Z,10.10
2019-02-24T11:10:34.070Z,10.20
2019-02-24T11:11:35.215Z,10.30
2019-02-24T11:12:37.424Z,10.40
2019-02-24T11:13:38.548Z,10.50
2019-02-24T11:14:39.670Z,10.70
2019-02-24T11:15:40.785Z,10.80
2019-02-24T11:16:43.805Z,10.90
2019-02-24T11:17:44.936Z,11.00
2019-02-24T11:18:46.083Z,11.10
2019-02-24T11:19:47.212Z,11.20
2019-02-24T11:20:48.333Z,11.20
2019-02-24T11:21:49.462Z,11.40
2019-02-24T11:22:50.584Z,11.50
2019-02-24T11:23:51.711Z,11.50
2019-02-24T11:24:53.234Z,11.60
2019-02-24T11:25:56.258Z,11.60
2019-02-24T11:26:57.718Z,11.60
2019-02-24T11:27:58.839Z,11.70
2019-02-24T11:28:59.957Z,11.80
2019-02-24T11:30:01.072Z,11.80
2019-02-24T11:31:02.403Z,11.70
2019-02-24T11:32:03.529Z,11.70
2019-02-24T11:33:04.649Z,11.80
2019-02-24T11:34:05.765Z,12.00
2019-02-24T11:35:08.702Z,12.10
2019-02-24T11:36:09.819Z,12.20
2019-02-24T11:37:10.949Z,12.30
2019-02-24T11:38:12.064Z,12.50
2019-02-24T11:39:13.176Z,12.60
2019-02-24T11:40:16.097Z,12.80
2019-02-24T11:41:17.232Z,12.90
2019-02-24T11:42:18.372Z,13.10
2019-02-24T11:43:19.492Z,13.20
2019-02-24T11:44:20.613Z,13.30
2019-02-24T11:45:21.775Z,13.30
2019-02-24T11:46:22.948Z,13.30
2019-02-24T11:47:24.085Z,13.00
2019-02-24T11:48:25.206Z,13.30
2019-02-24T11:49:26.324Z,13.40
2019-02-24T11:50:27.449Z,13.70
2019-02-24T11:51:28.558Z,13.90
2019-02-24T11:52:29.698Z,14.10
2019-02-24T11:53:30.830Z,14.40
2019-02-24T11:54:31.948Z,14.60
2019-02-24T11:55:33.164Z,14.80
2019-02-24T11:56:34.283Z,15.00
2019-02-24T11:57:36.025Z,15.20
2019-02-24T11:58:37.141Z,15.30
2019-02-24T11:59:38.260Z,15.30
2019-02-24T12:00:39.412Z,15.40
2019-02-24T12:01:47.300Z,15.60
2019-02-24T12:02:43.568Z,15.70
2019-02-24T12:03:44.709Z,15.90
2019-02-24T12:04:45.913Z,16.00
2019-02-24T12:05:47.029Z,16.00
2019-02-24T12:06:48.395Z,16.00
2019-02-24T12:07:49.520Z,16.10
2019-02-24T12:08:50.640Z,16.30
2019-02-24T12:09:51.773Z,16.50
2019-02-24T12:10:52.896Z,16.60
2019-02-24T12:11:54.027Z,16.80
2019-02-24T12:12:55.158Z,17.00
2019-02-24T12:13:56.291Z,17.20
2019-02-24T12:14:57.414Z,17.40
2019-02-24T12:15:58.546Z,17.50
2019-02-24T12:16:59.693Z,17.70
2019-02-24T12:18:00.861Z,17.70
2019-02-24T12:19:08.602Z,17.90
2019-02-24T12:22:02.726Z,18.00
2019-02-24T12:22:40.538Z,18.30
2019-02-24T12:23:47.080Z,18.50
2019-02-24T12:24:48.351Z,18.40
2019-02-24T12:25:49.472Z,18.60
2019-02-24T12:26:50.612Z,18.70
2019-02-24T12:27:51.728Z,18.80
2019-02-24T12:28:53.274Z,18.90
2019-02-24T12:29:57.451Z,19.10
2019-02-24T12:31:00.391Z,19.20
2019-02-24T12:33:44.053Z,19.40
2019-02-24T12:34:45.201Z,19.70
2019-02-24T12:35:46.321Z,19.80
2019-02-24T12:36:47.436Z,19.90
2019-02-24T12:37:48.848Z,20.00
2019-02-24T12:38:49.998Z,20.20
2019-02-24T12:39:51.122Z,20.30
2019-02-24T12:40:52.246Z,20.40
2019-02-24T12:41:53.669Z,20.60
2019-02-24T12:42:54.806Z,20.70
2019-02-24T12:43:55.945Z,20.80
2019-02-24T12:44:57.061Z,20.80
2019-02-24T12:45:58.201Z,20.90
2019-02-24T12:47:00.523Z,21.00
2019-02-24T12:48:01.759Z,21.10
2019-02-24T12:49:03.308Z,21.20
2019-02-24T12:50:08.029Z,21.20
2019-02-24T12:51:09.161Z,21.30
2019-02-24T12:52:10.577Z,21.40
2019-02-24T12:53:11.687Z,21.50
2019-02-24T12:54:12.822Z,21.60
2019-02-24T12:55:13.948Z,21.50
2019-02-24T12:56:15.122Z,21.60
2019-02-24T12:57:16.240Z,21.70
2019-02-24T12:58:17.420Z,21.70
2019-02-24T12:59:18.552Z,21.80
2019-02-24T13:00:26.165Z,21.90
2019-02-24T13:01:27.286Z,22.00
2019-02-24T13:02:28.408Z,22.10
2019-02-24T13:03:29.598Z,22.20
2019-02-24T13:04:30.812Z,22.40
2019-02-24T13:05:31.961Z,22.40
2019-02-24T13:06:33.073Z,22.50
2019-02-24T13:07:34.504Z,22.70
2019-02-24T13:08:35.624Z,22.70
2019-02-24T13:09:36.746Z,22.90
2019-02-24T13:10:37.867Z,22.90
2019-02-24T13:11:38.980Z,23.00
2019-02-24T13:12:40.098Z,23.10
2019-02-24T13:13:41.226Z,23.20
2019-02-24T13:14:42.353Z,23.20
2019-02-24T13:15:43.469Z,23.30
2019-02-24T13:16:44.589Z,23.40
2019-02-24T13:17:45.700Z,23.40
2019-02-24T13:18:46.942Z,23.50
2019-02-24T13:19:48.074Z,23.60
2019-02-24T13:20:49.192Z,23.70
2019-02-24T13:21:50.302Z,23.80
2019-02-24T13:22:51.830Z,23.80
2019-02-24T13:23:52.965Z,23.90
2019-02-24T13:24:54.076Z,24.00
2019-02-24T13:25:55.192Z,24.10
2019-02-24T13:26:56.330Z,24.20
2019-02-24T13:27:57.449Z,24.30
2019-02-24T13:28:58.843Z,24.40
2019-02-24T13:29:59.963Z,24.50
2019-02-24T13:31:01.088Z,24.60
2019-02-24T13:32:02.208Z,24.70
2019-02-24T13:33:03.326Z,24.80
2019-02-24T13:34:04.457Z,24.80